sensor_id;sensor_type;location;lat;lon;timestamp;P1;durP1;ratioP1;P2;durP2;ratioP2
21624;SDS011;10974;51.034;3.744;2023-03-23T04:24:23;6.40;;;2.10;;
21624;SDS011;10974;51.034;3.744;2023-03-23T04:26:49;4.33;;;2.00;;
21624;SDS011;10974;51.034;3.744;2023-03-23T04:29:17;5.53;;;2.20;;
21624;SDS011;10974;51.034;3.744;2023-03-23T04:31:44;7.67;;;2.03;;
21624;SDS011;10974;51.034;3.744;2023-03-23T04:34:10;5.23;;;2.10;;
21624;SDS011;10974;51.034;3.744;2023-03-23T04:36:40;8.97;;;2.30;;
21624;SDS011;10974;51.034;3.744;2023-03-23T04:39:07;4.93;;;2.00;;
21624;SDS011;10974;51.034;3.744;2023-03-23T04:41:37;6.13;;;2.07;;
21624;SDS011;10974;51.034;3.744;2023-03-23T04:44:04;3.73;;;2.00;;
21624;SDS011;10974;51.034;3.744;2023-03-23T04:46:31;8.00;;;1.80;;
21624;SDS011;10974;51.034;3.744;2023-03-23T04:48:57;6.13;;;2.10;;
21624;SDS011;10974;51.034;3.744;2023-03-23T04:51:24;5.03;;;2.13;;
21624;SDS011;10974;51.034;3.744;2023-03-23T04:53:51;6.07;;;2.10;;
21624;SDS011;10974;51.034;3.744;2023-03-23T04:56:17;4.87;;;1.80;;
21624;SDS011;10974;51.034;3.744;2023-03-23T04:58:43;4.83;;;1.70;;
21624;SDS011;10974;51.034;3.744;2023-03-23T05:01:10;6.13;;;2.10;;
21624;SDS011;10974;51.034;3.744;2023-03-23T05:03:39;4.27;;;1.80;;
21624;SDS011;10974;51.034;3.744;2023-03-23T05:06:05;7.60;;;2.23;;
21624;SDS011;10974;51.034;3.744;2023-03-23T05:08:32;9.40;;;2.20;;
21624;SDS011;10974;51.034;3.744;2023-03-23T05:10:58;4.80;;;2.00;;
21624;SDS011;10974;51.034;3.744;2023-03-23T05:13:24;4.33;;;2.10;;
21624;SDS011;10974;51.034;3.744;2023-03-23T05:15:51;5.47;;;2.07;;
21624;SDS011;10974;51.034;3.744;2023-03-23T05:18:17;6.20;;;1.87;;
21624;SDS011;10974;51.034;3.744;2023-03-23T05:20:45;6.83;;;2.17;;
21624;SDS011;10974;51.034;3.744;2023-03-23T05:23:11;4.50;;;1.70;;
21624;SDS011;10974;51.034;3.744;2023-03-23T05:25:38;5.53;;;2.00;;
21624;SDS011;10974;51.034;3.744;2023-03-23T05:28:07;4.60;;;1.90;;
21624;SDS011;10974;51.034;3.744;2023-03-23T05:30:33;8.97;;;2.47;;
21624;SDS011;10974;51.034;3.744;2023-03-23T05:33:00;6.67;;;2.37;;
21624;SDS011;10974;51.034;3.744;2023-03-23T05:35:26;7.20;;;2.07;;
21624;SDS011;10974;51.034;3.744;2023-03-23T05:37:52;13.23;;;2.47;;
21624;SDS011;10974;51.034;3.744;2023-03-23T05:40:19;6.73;;;2.03;;
21624;SDS011;10974;51.034;3.744;2023-03-23T05:42:45;5.20;;;2.07;;
21624;SDS011;10974;51.034;3.744;2023-03-23T05:45:11;5.50;;;2.30;;
21624;SDS011;10974;51.034;3.744;2023-03-23T05:47:38;5.97;;;1.97;;
21624;SDS011;10974;51.034;3.744;2023-03-23T05:50:05;7.37;;;1.97;;
21624;SDS011;10974;51.034;3.744;2023-03-23T05:52:33;4.80;;;1.90;;
21624;SDS011;10974;51.034;3.744;2023-03-23T05:55:00;7.30;;;1.77;;
21624;SDS011;10974;51.034;3.744;2023-03-23T05:57:28;4.90;;;1.60;;
21624;SDS011;10974;51.034;3.744;2023-03-23T05:59:54;4.73;;;1.50;;
21624;SDS011;10974;51.034;3.744;2023-03-23T06:02:22;3.03;;;1.60;;
21624;SDS011;10974;51.034;3.744;2023-03-23T06:04:49;7.60;;;1.80;;
21624;SDS011;10974;51.034;3.744;2023-03-23T06:07:15;5.00;;;1.60;;
21624;SDS011;10974;51.034;3.744;2023-03-23T06:09:42;2.30;;;1.43;;
21624;SDS011;10974;51.034;3.744;2023-03-23T06:12:08;5.33;;;1.47;;
21624;SDS011;10974;51.034;3.744;2023-03-23T06:14:35;4.77;;;1.33;;
21624;SDS011;10974;51.034;3.744;2023-03-23T06:17:02;3.70;;;1.20;;
21624;SDS011;10974;51.034;3.744;2023-03-23T06:19:28;8.17;;;1.70;;
21624;SDS011;10974;51.034;3.744;2023-03-23T06:21:54;5.37;;;1.70;;
21624;SDS011;10974;51.034;3.744;2023-03-23T06:24:21;3.97;;;1.70;;
21624;SDS011;10974;51.034;3.744;2023-03-23T06:26:47;5.00;;;1.40;;
21624;SDS011;10974;51.034;3.744;2023-03-23T06:29:15;5.57;;;1.43;;
21624;SDS011;10974;51.034;3.744;2023-03-23T06:31:49;5.90;;;2.10;;
21624;SDS011;10974;51.034;3.744;2023-03-23T06:34:17;6.17;;;2.13;;
21624;SDS011;10974;51.034;3.744;2023-03-23T06:36:43;5.37;;;1.77;;
21624;SDS011;10974;51.034;3.744;2023-03-23T06:39:10;3.67;;;1.73;;
21624;SDS011;10974;51.034;3.744;2023-03-23T06:41:36;4.83;;;1.70;;
21624;SDS011;10974;51.034;3.744;2023-03-23T06:44:02;5.87;;;2.30;;
21624;SDS011;10974;51.034;3.744;2023-03-23T06:46:28;6.87;;;1.93;;
21624;SDS011;10974;51.034;3.744;2023-03-23T06:48:54;5.97;;;1.83;;
21624;SDS011;10974;51.034;3.744;2023-03-23T06:51:22;4.10;;;2.17;;
21624;SDS011;10974;51.034;3.744;2023-03-23T06:53:48;3.87;;;1.73;;
21624;SDS011;10974;51.034;3.744;2023-03-23T06:56:14;6.40;;;1.90;;
21624;SDS011;10974;51.034;3.744;2023-03-23T06:58:40;6.13;;;2.10;;
21624;SDS011;10974;51.034;3.744;2023-03-23T07:01:16;7.30;;;2.47;;
21624;SDS011;10974;51.034;3.744;2023-03-23T07:03:42;7.10;;;2.90;;
21624;SDS011;10974;51.034;3.744;2023-03-23T07:06:09;7.30;;;2.50;;
21624;SDS011;10974;51.034;3.744;2023-03-23T07:08:35;5.03;;;1.70;;
21624;SDS011;10974;51.034;3.744;2023-03-23T07:11:01;5.50;;;1.70;;
21624;SDS011;10974;51.034;3.744;2023-03-23T07:13:28;6.60;;;1.80;;
21624;SDS011;10974;51.034;3.744;2023-03-23T07:15:54;5.87;;;1.60;;
21624;SDS011;10974;51.034;3.744;2023-03-23T07:18:20;5.93;;;1.90;;
21624;SDS011;10974;51.034;3.744;2023-03-23T07:20:47;6.77;;;2.13;;
21624;SDS011;10974;51.034;3.744;2023-03-23T07:23:14;4.70;;;1.80;;
21624;SDS011;10974;51.034;3.744;2023-03-23T07:25:40;3.53;;;1.40;;
21624;SDS011;10974;51.034;3.744;2023-03-23T07:28:06;10.60;;;1.67;;
21624;SDS011;10974;51.034;3.744;2023-03-23T07:30:32;7.13;;;2.43;;
21624;SDS011;10974;51.034;3.744;2023-03-23T07:32:59;8.63;;;2.27;;
21624;SDS011;10974;51.034;3.744;2023-03-23T07:35:25;5.37;;;2.00;;
21624;SDS011;10974;51.034;3.744;2023-03-23T07:37:51;3.63;;;2.07;;
21624;SDS011;10974;51.034;3.744;2023-03-23T07:40:18;4.23;;;1.60;;
21624;SDS011;10974;51.034;3.744;2023-03-23T07:42:50;9.30;;;1.93;;
21624;SDS011;10974;51.034;3.744;2023-03-23T07:45:17;5.03;;;1.80;;
21624;SDS011;10974;51.034;3.744;2023-03-23T07:47:43;5.03;;;1.90;;
21624;SDS011;10974;51.034;3.744;2023-03-23T07:50:09;3.17;;;1.97;;
21624;SDS011;10974;51.034;3.744;2023-03-23T07:52:37;4.20;;;1.83;;
21624;SDS011;10974;51.034;3.744;2023-03-23T07:55:04;134.90;;;6.07;;
21624;SDS011;10974;51.034;3.744;2023-03-23T07:57:31;4.40;;;2.33;;
21624;SDS011;10974;51.034;3.744;2023-03-23T07:59:58;5.30;;;1.77;;
21624;SDS011;10974;51.034;3.744;2023-03-23T08:02:25;3.97;;;1.80;;
21624;SDS011;10974;51.034;3.744;2023-03-23T08:04:52;4.20;;;1.60;;
21624;SDS011;10974;51.034;3.744;2023-03-23T08:07:19;7.70;;;2.30;;
21624;SDS011;10974;51.034;3.744;2023-03-23T08:09:47;5.00;;;1.77;;
21624;SDS011;10974;51.034;3.744;2023-03-23T08:12:13;7.63;;;2.17;;
21624;SDS011;10974;51.034;3.744;2023-03-23T08:14:40;9.27;;;1.90;;
21624;SDS011;10974;51.034;3.744;2023-03-23T08:17:07;4.70;;;1.60;;
21624;SDS011;10974;51.034;3.744;2023-03-23T08:19:34;5.37;;;1.67;;
21624;SDS011;10974;51.034;3.744;2023-03-23T08:22:02;5.00;;;1.60;;
21624;SDS011;10974;51.034;3.744;2023-03-23T08:24:28;7.53;;;2.10;;
21624;SDS011;10974;51.034;3.744;2023-03-23T08:26:54;8.80;;;2.30;;
21624;SDS011;10974;51.034;3.744;2023-03-23T08:29:20;5.50;;;2.30;;
21624;SDS011;10974;51.034;3.744;2023-03-23T08:31:47;5.53;;;2.13;;
21624;SDS011;10974;51.034;3.744;2023-03-23T08:34:13;8.37;;;2.03;;
21624;SDS011;10974;51.034;3.744;2023-03-23T08:36:40;5.97;;;2.00;;
21624;SDS011;10974;51.034;3.744;2023-03-23T08:39:09;4.37;;;1.93;;
21624;SDS011;10974;51.034;3.744;2023-03-23T08:41:35;4.70;;;1.70;;
21624;SDS011;10974;51.034;3.744;2023-03-23T08:44:02;10.27;;;2.60;;
21624;SDS011;10974;51.034;3.744;2023-03-23T08:46:29;5.70;;;1.83;;
21624;SDS011;10974;51.034;3.744;2023-03-23T08:48:55;6.53;;;2.53;;
21624;SDS011;10974;51.034;3.744;2023-03-23T08:51:21;7.93;;;2.20;;
21624;SDS011;10974;51.034;3.744;2023-03-23T08:53:48;7.87;;;2.10;;
21624;SDS011;10974;51.034;3.744;2023-03-23T08:56:14;9.67;;;2.60;;
21624;SDS011;10974;51.034;3.744;2023-03-23T08:58:40;5.50;;;1.83;;
21624;SDS011;10974;51.034;3.744;2023-03-23T09:01:07;2.83;;;1.57;;
21624;SDS011;10974;51.034;3.744;2023-03-23T09:03:36;5.30;;;1.80;;
21624;SDS011;10974;51.034;3.744;2023-03-23T09:06:03;4.77;;;2.20;;
21624;SDS011;10974;51.034;3.744;2023-03-23T09:08:30;2.90;;;2.03;;
21624;SDS011;10974;51.034;3.744;2023-03-23T09:10:59;4.43;;;1.60;;
21624;SDS011;10974;51.034;3.744;2023-03-23T09:13:26;4.00;;;1.73;;
21624;SDS011;10974;51.034;3.744;2023-03-23T09:15:52;8.83;;;1.70;;
21624;SDS011;10974;51.034;3.744;2023-03-23T09:18:18;3.77;;;1.80;;
21624;SDS011;10974;51.034;3.744;2023-03-23T09:20:44;6.23;;;2.07;;
21624;SDS011;10974;51.034;3.744;2023-03-23T09:23:10;8.13;;;2.30;;
21624;SDS011;10974;51.034;3.744;2023-03-23T09:25:38;6.27;;;2.43;;
21624;SDS011;10974;51.034;3.744;2023-03-23T09:28:05;4.10;;;1.70;;
21624;SDS011;10974;51.034;3.744;2023-03-23T09:30:32;4.80;;;1.60;;
21624;SDS011;10974;51.034;3.744;2023-03-23T09:33:01;4.07;;;1.50;;
21624;SDS011;10974;51.034;3.744;2023-03-23T09:35:28;3.37;;;1.53;;
21624;SDS011;10974;51.034;3.744;2023-03-23T09:37:56;6.23;;;2.00;;
21624;SDS011;10974;51.034;3.744;2023-03-23T09:40:29;2.27;;;1.30;;
21624;SDS011;10974;51.034;3.744;2023-03-23T09:45:43;4.17;;;1.27;;
21624;SDS011;10974;51.034;3.744;2023-03-23T09:50:41;5.23;;;1.90;;
21624;SDS011;10974;51.034;3.744;2023-03-23T09:55:34;3.43;;;1.60;;
21624;SDS011;10974;51.034;3.744;2023-03-23T10:00:37;4.93;;;1.87;;
21624;SDS011;10974;51.034;3.744;2023-03-23T10:03:14;4.20;;;1.80;;
21624;SDS011;10974;51.034;3.744;2023-03-23T10:05:45;5.97;;;1.97;;
21624;SDS011;10974;51.034;3.744;2023-03-23T10:16:14;6.03;;;2.20;;
21624;SDS011;10974;51.034;3.744;2023-03-23T10:18:43;8.20;;;2.20;;
21624;SDS011;10974;51.034;3.744;2023-03-23T10:21:11;4.50;;;1.70;;
21624;SDS011;10974;51.034;3.744;2023-03-23T10:23:53;5.33;;;2.07;;
21624;SDS011;10974;51.034;3.744;2023-03-23T10:28:57;6.10;;;2.00;;
21624;SDS011;10974;51.034;3.744;2023-03-23T10:31:25;4.63;;;1.80;;
21624;SDS011;10974;51.034;3.744;2023-03-23T10:33:57;5.50;;;2.20;;
21624;SDS011;10974;51.034;3.744;2023-03-23T10:36:25;7.57;;;1.90;;
21624;SDS011;10974;51.034;3.744;2023-03-23T10:41:31;4.13;;;1.70;;
21624;SDS011;10974;51.034;3.744;2023-03-23T10:43:57;9.63;;;2.57;;
21624;SDS011;10974;51.034;3.744;2023-03-23T10:46:26;8.60;;;2.13;;
21624;SDS011;10974;51.034;3.744;2023-03-23T10:48:53;9.47;;;2.77;;
21624;SDS011;10974;51.034;3.744;2023-03-23T10:51:22;6.47;;;2.30;;
21624;SDS011;10974;51.034;3.744;2023-03-23T10:53:51;7.23;;;2.63;;
21624;SDS011;10974;51.034;3.744;2023-03-23T10:56:28;3.87;;;2.20;;
21624;SDS011;10974;51.034;3.744;2023-03-23T10:58:55;8.03;;;2.27;;
21624;SDS011;10974;51.034;3.744;2023-03-23T11:01:31;9.60;;;2.27;;
21624;SDS011;10974;51.034;3.744;2023-03-23T11:03:57;10.50;;;2.53;;
21624;SDS011;10974;51.034;3.744;2023-03-23T11:06:32;6.30;;;2.33;;
21624;SDS011;10974;51.034;3.744;2023-03-23T11:09:09;7.77;;;2.00;;
21624;SDS011;10974;51.034;3.744;2023-03-23T11:11:40;6.60;;;2.53;;
21624;SDS011;10974;51.034;3.744;2023-03-23T11:16:44;8.07;;;2.60;;
21624;SDS011;10974;51.034;3.744;2023-03-23T11:19:12;8.00;;;2.83;;
21624;SDS011;10974;51.034;3.744;2023-03-23T11:21:39;8.00;;;2.33;;
21624;SDS011;10974;51.034;3.744;2023-03-23T11:24:07;5.07;;;2.43;;
21624;SDS011;10974;51.034;3.744;2023-03-23T11:26:34;7.90;;;3.00;;
21624;SDS011;10974;51.034;3.744;2023-03-23T11:32:21;9.33;;;2.80;;
21624;SDS011;10974;51.034;3.744;2023-03-23T11:34:34;11.83;;;2.90;;
21624;SDS011;10974;51.034;3.744;2023-03-23T11:39:35;9.90;;;2.87;;
21624;SDS011;10974;51.034;3.744;2023-03-23T11:42:12;4.20;;;2.10;;
21624;SDS011;10974;51.034;3.744;2023-03-23T11:44:42;8.40;;;2.43;;
21624;SDS011;10974;51.034;3.744;2023-03-23T11:47:30;7.50;;;2.30;;
21624;SDS011;10974;51.034;3.744;2023-03-23T11:50:08;11.63;;;3.37;;
21624;SDS011;10974;51.034;3.744;2023-03-23T11:55:19;10.83;;;2.93;;
21624;SDS011;10974;51.034;3.744;2023-03-23T11:57:47;10.23;;;3.10;;
21624;SDS011;10974;51.034;3.744;2023-03-23T12:05:39;11.10;;;2.60;;
21624;SDS011;10974;51.034;3.744;2023-03-23T12:13:21;9.50;;;2.97;;
21624;SDS011;10974;51.034;3.744;2023-03-23T12:15:55;10.53;;;2.70;;
21624;SDS011;10974;51.034;3.744;2023-03-23T12:31:18;10.13;;;3.10;;
21624;SDS011;10974;51.034;3.744;2023-03-23T12:42:21;9.90;;;2.57;;
21624;SDS011;10974;51.034;3.744;2023-03-23T12:47:35;9.10;;;2.50;;
21624;SDS011;10974;51.034;3.744;2023-03-23T12:50:14;10.40;;;2.90;;
21624;SDS011;10974;51.034;3.744;2023-03-23T12:52:48;8.90;;;3.10;;
21624;SDS011;10974;51.034;3.744;2023-03-23T12:55:23;12.07;;;3.00;;
21624;SDS011;10974;51.034;3.744;2023-03-23T12:57:57;13.77;;;3.40;;
21624;SDS011;10974;51.034;3.744;2023-03-23T13:00:29;16.83;;;3.73;;
21624;SDS011;10974;51.034;3.744;2023-03-23T13:03:07;11.67;;;3.10;;
21624;SDS011;10974;51.034;3.744;2023-03-23T13:05:50;12.90;;;2.90;;
21624;SDS011;10974;51.034;3.744;2023-03-23T13:08:26;9.13;;;2.83;;
21624;SDS011;10974;51.034;3.744;2023-03-23T13:10:54;13.53;;;4.13;;
21624;SDS011;10974;51.034;3.744;2023-03-23T13:13:22;10.60;;;3.10;;
21624;SDS011;10974;51.034;3.744;2023-03-23T13:21:05;11.80;;;3.10;;
21624;SDS011;10974;51.034;3.744;2023-03-23T13:26:00;11.50;;;2.80;;
21624;SDS011;10974;51.034;3.744;2023-03-23T13:28:27;12.00;;;3.27;;
21624;SDS011;10974;51.034;3.744;2023-03-23T13:30:58;7.93;;;2.83;;
21624;SDS011;10974;51.034;3.744;2023-03-23T13:33:25;12.07;;;2.60;;
21624;SDS011;10974;51.034;3.744;2023-03-23T13:35:54;9.23;;;3.10;;
21624;SDS011;10974;51.034;3.744;2023-03-23T13:38:24;15.13;;;3.00;;
21624;SDS011;10974;51.034;3.744;2023-03-23T13:40:51;12.57;;;2.77;;
21624;SDS011;10974;51.034;3.744;2023-03-23T13:43:25;7.90;;;2.63;;
21624;SDS011;10974;51.034;3.744;2023-03-23T13:45:52;9.03;;;3.57;;
21624;SDS011;10974;51.034;3.744;2023-03-23T13:48:22;7.80;;;2.50;;
21624;SDS011;10974;51.034;3.744;2023-03-23T13:50:56;8.57;;;2.60;;
21624;SDS011;10974;51.034;3.744;2023-03-23T13:53:29;10.97;;;3.60;;
21624;SDS011;10974;51.034;3.744;2023-03-23T13:58:49;7.10;;;2.73;;
21624;SDS011;10974;51.034;3.744;2023-03-23T14:01:18;9.53;;;2.83;;
21624;SDS011;10974;51.034;3.744;2023-03-23T14:03:48;10.40;;;3.03;;
21624;SDS011;10974;51.034;3.744;2023-03-23T14:06:22;7.00;;;2.70;;
21624;SDS011;10974;51.034;3.744;2023-03-23T14:08:51;9.67;;;2.30;;
21624;SDS011;10974;51.034;3.744;2023-03-23T14:11:25;8.37;;;3.00;;
21624;SDS011;10974;51.034;3.744;2023-03-23T14:14:05;10.90;;;3.13;;
21624;SDS011;10974;51.034;3.744;2023-03-23T14:16:41;8.57;;;2.47;;
21624;SDS011;10974;51.034;3.744;2023-03-23T14:19:41;13.00;;;2.87;;
21624;SDS011;10974;51.034;3.744;2023-03-23T14:22:00;6.90;;;2.60;;
21624;SDS011;10974;51.034;3.744;2023-03-23T14:24:28;7.10;;;2.57;;
21624;SDS011;10974;51.034;3.744;2023-03-23T14:29:30;6.93;;;2.23;;
21624;SDS011;10974;51.034;3.744;2023-03-23T14:31:57;11.77;;;2.30;;
21624;SDS011;10974;51.034;3.744;2023-03-23T14:34:26;7.70;;;2.60;;
21624;SDS011;10974;51.034;3.744;2023-03-23T14:36:53;6.90;;;2.70;;
21624;SDS011;10974;51.034;3.744;2023-03-23T14:41:54;9.97;;;2.63;;
21624;SDS011;10974;51.034;3.744;2023-03-23T14:44:25;10.73;;;2.70;;
21624;SDS011;10974;51.034;3.744;2023-03-23T14:46:52;10.20;;;3.20;;
21624;SDS011;10974;51.034;3.744;2023-03-23T14:49:21;7.43;;;2.70;;
21624;SDS011;10974;51.034;3.744;2023-03-23T14:51:51;9.33;;;3.17;;
21624;SDS011;10974;51.034;3.744;2023-03-23T14:54:26;7.13;;;2.60;;
21624;SDS011;10974;51.034;3.744;2023-03-23T14:56:52;9.63;;;2.90;;
21624;SDS011;10974;51.034;3.744;2023-03-23T14:59:19;15.00;;;3.30;;
21624;SDS011;10974;51.034;3.744;2023-03-23T15:01:46;12.07;;;3.10;;
21624;SDS011;10974;51.034;3.744;2023-03-23T15:04:17;11.07;;;3.20;;
21624;SDS011;10974;51.034;3.744;2023-03-23T15:06:45;6.77;;;2.60;;
21624;SDS011;10974;51.034;3.744;2023-03-23T15:09:14;8.67;;;3.00;;
21624;SDS011;10974;51.034;3.744;2023-03-23T15:11:43;11.03;;;2.63;;
21624;SDS011;10974;51.034;3.744;2023-03-23T15:14:19;8.60;;;3.03;;
21624;SDS011;10974;51.034;3.744;2023-03-23T15:16:47;8.93;;;2.53;;
21624;SDS011;10974;51.034;3.744;2023-03-23T15:21:52;5.97;;;2.40;;
21624;SDS011;10974;51.034;3.744;2023-03-23T15:24:24;12.20;;;3.50;;
21624;SDS011;10974;51.034;3.744;2023-03-23T15:26:51;7.87;;;2.87;;
21624;SDS011;10974;51.034;3.744;2023-03-23T15:29:19;9.90;;;3.00;;
21624;SDS011;10974;51.034;3.744;2023-03-23T15:31:47;10.00;;;3.10;;
21624;SDS011;10974;51.034;3.744;2023-03-23T15:34:35;7.30;;;3.00;;
21624;SDS011;10974;51.034;3.744;2023-03-23T15:37:27;7.93;;;2.83;;
21624;SDS011;10974;51.034;3.744;2023-03-23T15:39:53;7.53;;;2.90;;
21624;SDS011;10974;51.034;3.744;2023-03-23T15:42:32;8.37;;;2.90;;
21624;SDS011;10974;51.034;3.744;2023-03-23T15:50:09;8.93;;;3.13;;
21624;SDS011;10974;51.034;3.744;2023-03-23T15:52:35;12.50;;;3.43;;
21624;SDS011;10974;51.034;3.744;2023-03-23T15:55:01;9.20;;;3.10;;
21624;SDS011;10974;51.034;3.744;2023-03-23T15:57:27;11.73;;;3.33;;
21624;SDS011;10974;51.034;3.744;2023-03-23T15:59:54;9.20;;;3.17;;
21624;SDS011;10974;51.034;3.744;2023-03-23T16:02:21;15.87;;;7.00;;
21624;SDS011;10974;51.034;3.744;2023-03-23T16:04:48;13.33;;;4.30;;
21624;SDS011;10974;51.034;3.744;2023-03-23T16:07:22;9.73;;;2.90;;
21624;SDS011;10974;51.034;3.744;2023-03-23T16:09:48;10.97;;;3.37;;
21624;SDS011;10974;51.034;3.744;2023-03-23T16:12:14;7.80;;;2.83;;
21624;SDS011;10974;51.034;3.744;2023-03-23T16:14:40;8.10;;;3.30;;
21624;SDS011;10974;51.034;3.744;2023-03-23T16:17:08;13.67;;;3.00;;
21624;SDS011;10974;51.034;3.744;2023-03-23T16:19:35;8.80;;;3.00;;
21624;SDS011;10974;51.034;3.744;2023-03-23T16:22:02;17.13;;;3.93;;
21624;SDS011;10974;51.034;3.744;2023-03-23T16:24:28;10.90;;;2.97;;
21624;SDS011;10974;51.034;3.744;2023-03-23T16:26:54;11.97;;;3.00;;
21624;SDS011;10974;51.034;3.744;2023-03-23T16:29:20;11.53;;;2.50;;
21624;SDS011;10974;51.034;3.744;2023-03-23T16:31:46;9.07;;;2.30;;
21624;SDS011;10974;51.034;3.744;2023-03-23T16:34:12;6.97;;;2.50;;
21624;SDS011;10974;51.034;3.744;2023-03-23T16:36:38;6.83;;;2.70;;
21624;SDS011;10974;51.034;3.744;2023-03-23T16:39:04;8.70;;;2.53;;
21624;SDS011;10974;51.034;3.744;2023-03-23T16:41:31;6.83;;;2.53;;
21624;SDS011;10974;51.034;3.744;2023-03-23T16:43:57;8.40;;;2.70;;
21624;SDS011;10974;51.034;3.744;2023-03-23T16:46:23;7.67;;;2.60;;
21624;SDS011;10974;51.034;3.744;2023-03-23T16:48:49;9.73;;;3.07;;
21624;SDS011;10974;51.034;3.744;2023-03-23T16:51:15;6.80;;;2.47;;
21624;SDS011;10974;51.034;3.744;2023-03-23T16:53:41;6.27;;;2.40;;
21624;SDS011;10974;51.034;3.744;2023-03-23T16:56:08;7.20;;;2.77;;
21624;SDS011;10974;51.034;3.744;2023-03-23T16:58:34;7.43;;;2.77;;
21624;SDS011;10974;51.034;3.744;2023-03-23T17:01:01;9.67;;;2.70;;
21624;SDS011;10974;51.034;3.744;2023-03-23T17:03:27;11.47;;;2.70;;
21624;SDS011;10974;51.034;3.744;2023-03-23T17:05:53;6.73;;;2.50;;
21624;SDS011;10974;51.034;3.744;2023-03-23T17:08:19;5.90;;;2.43;;
21624;SDS011;10974;51.034;3.744;2023-03-23T17:10:46;12.00;;;3.53;;
21624;SDS011;10974;51.034;3.744;2023-03-23T17:13:12;11.20;;;4.27;;
21624;SDS011;10974;51.034;3.744;2023-03-23T17:15:39;8.60;;;3.17;;
21624;SDS011;10974;51.034;3.744;2023-03-23T17:18:06;7.80;;;2.70;;
21624;SDS011;10974;51.034;3.744;2023-03-23T17:20:32;12.77;;;3.27;;
21624;SDS011;10974;51.034;3.744;2023-03-23T17:22:58;10.40;;;4.00;;
21624;SDS011;10974;51.034;3.744;2023-03-23T17:25:25;10.20;;;3.10;;
21624;SDS011;10974;51.034;3.744;2023-03-23T17:27:51;12.43;;;3.17;;
21624;SDS011;10974;51.034;3.744;2023-03-23T17:30:18;9.77;;;2.90;;
21624;SDS011;10974;51.034;3.744;2023-03-23T17:32:44;10.50;;;3.17;;
21624;SDS011;10974;51.034;3.744;2023-03-23T17:35:12;11.93;;;3.37;;
21624;SDS011;10974;51.034;3.744;2023-03-23T17:37:38;12.00;;;3.27;;
21624;SDS011;10974;51.034;3.744;2023-03-23T17:40:04;14.33;;;4.10;;
21624;SDS011;10974;51.034;3.744;2023-03-23T17:42:34;9.47;;;3.80;;
21624;SDS011;10974;51.034;3.744;2023-03-23T17:45:00;11.60;;;3.37;;
21624;SDS011;10974;51.034;3.744;2023-03-23T17:47:27;10.00;;;3.50;;
21624;SDS011;10974;51.034;3.744;2023-03-23T17:49:53;10.20;;;3.97;;
21624;SDS011;10974;51.034;3.744;2023-03-23T17:52:19;10.20;;;3.90;;
21624;SDS011;10974;51.034;3.744;2023-03-23T17:54:46;9.60;;;3.00;;
21624;SDS011;10974;51.034;3.744;2023-03-23T17:57:12;13.00;;;3.70;;
21624;SDS011;10974;51.034;3.744;2023-03-23T17:59:38;15.03;;;4.00;;
21624;SDS011;10974;51.034;3.744;2023-03-23T18:02:04;11.03;;;3.60;;
21624;SDS011;10974;51.034;3.744;2023-03-23T18:04:30;16.23;;;3.80;;
21624;SDS011;10974;51.034;3.744;2023-03-23T18:06:56;10.00;;;3.30;;
21624;SDS011;10974;51.034;3.744;2023-03-23T18:09:23;8.87;;;3.60;;
21624;SDS011;10974;51.034;3.744;2023-03-23T18:11:49;12.63;;;3.87;;
21624;SDS011;10974;51.034;3.744;2023-03-23T18:14:16;18.17;;;3.90;;
21624;SDS011;10974;51.034;3.744;2023-03-23T18:16:42;15.27;;;3.80;;
21624;SDS011;10974;51.034;3.744;2023-03-23T18:19:08;12.03;;;3.90;;
21624;SDS011;10974;51.034;3.744;2023-03-23T18:21:34;10.33;;;3.40;;
21624;SDS011;10974;51.034;3.744;2023-03-23T18:24:00;13.60;;;4.37;;
21624;SDS011;10974;51.034;3.744;2023-03-23T18:26:27;10.77;;;4.50;;
21624;SDS011;10974;51.034;3.744;2023-03-23T18:28:53;10.43;;;3.57;;
21624;SDS011;10974;51.034;3.744;2023-03-23T18:31:20;11.03;;;3.77;;
21624;SDS011;10974;51.034;3.744;2023-03-23T18:33:47;14.43;;;3.83;;
21624;SDS011;10974;51.034;3.744;2023-03-23T18:36:14;15.23;;;4.40;;
21624;SDS011;10974;51.034;3.744;2023-03-23T18:38:41;14.03;;;4.00;;
21624;SDS011;10974;51.034;3.744;2023-03-23T18:41:07;10.43;;;3.90;;
21624;SDS011;10974;51.034;3.744;2023-03-23T18:43:34;10.00;;;3.47;;
21624;SDS011;10974;51.034;3.744;2023-03-23T18:46:00;12.43;;;3.57;;
21624;SDS011;10974;51.034;3.744;2023-03-23T18:48:26;17.07;;;3.40;;
21624;SDS011;10974;51.034;3.744;2023-03-23T18:50:53;13.43;;;3.73;;
21624;SDS011;10974;51.034;3.744;2023-03-23T18:53:20;16.30;;;3.97;;
21624;SDS011;10974;51.034;3.744;2023-03-23T18:55:47;10.93;;;3.40;;
21624;SDS011;10974;51.034;3.744;2023-03-23T18:58:14;11.30;;;4.17;;
21624;SDS011;10974;51.034;3.744;2023-03-23T19:00:40;12.87;;;4.93;;
21624;SDS011;10974;51.034;3.744;2023-03-23T19:03:07;7.43;;;3.53;;
21624;SDS011;10974;51.034;3.744;2023-03-23T19:05:34;13.93;;;3.87;;
21624;SDS011;10974;51.034;3.744;2023-03-23T19:08:00;12.73;;;4.33;;
21624;SDS011;10974;51.034;3.744;2023-03-23T19:10:27;18.37;;;4.53;;
21624;SDS011;10974;51.034;3.744;2023-03-23T19:12:53;10.13;;;3.60;;
21624;SDS011;10974;51.034;3.744;2023-03-23T19:15:19;13.63;;;3.97;;
21624;SDS011;10974;51.034;3.744;2023-03-23T19:17:46;9.97;;;3.60;;
21624;SDS011;10974;51.034;3.744;2023-03-23T19:20:12;9.33;;;3.80;;
21624;SDS011;10974;51.034;3.744;2023-03-23T19:22:38;8.30;;;3.60;;
21624;SDS011;10974;51.034;3.744;2023-03-23T19:25:05;10.40;;;4.20;;
21624;SDS011;10974;51.034;3.744;2023-03-23T19:27:32;7.63;;;3.37;;
21624;SDS011;10974;51.034;3.744;2023-03-23T19:29:58;17.17;;;4.07;;
21624;SDS011;10974;51.034;3.744;2023-03-23T19:32:24;6.47;;;3.10;;
21624;SDS011;10974;51.034;3.744;2023-03-23T19:34:50;7.30;;;3.03;;
21624;SDS011;10974;51.034;3.744;2023-03-23T19:37:17;11.70;;;3.63;;
21624;SDS011;10974;51.034;3.744;2023-03-23T19:39:43;8.07;;;3.30;;
21624;SDS011;10974;51.034;3.744;2023-03-23T19:42:10;9.70;;;3.40;;
21624;SDS011;10974;51.034;3.744;2023-03-23T19:44:40;8.40;;;3.33;;
21624;SDS011;10974;51.034;3.744;2023-03-23T19:47:07;7.10;;;3.20;;
21624;SDS011;10974;51.034;3.744;2023-03-23T19:49:33;13.33;;;3.20;;
21624;SDS011;10974;51.034;3.744;2023-03-23T19:51:59;8.97;;;2.90;;
21624;SDS011;10974;51.034;3.744;2023-03-23T19:54:26;11.53;;;3.20;;
21624;SDS011;10974;51.034;3.744;2023-03-23T19:56:52;9.77;;;3.57;;
21624;SDS011;10974;51.034;3.744;2023-03-23T19:59:18;7.23;;;2.77;;
21624;SDS011;10974;51.034;3.744;2023-03-23T20:01:44;6.77;;;3.03;;
21624;SDS011;10974;51.034;3.744;2023-03-23T20:04:10;7.60;;;3.13;;
21624;SDS011;10974;51.034;3.744;2023-03-23T20:06:37;9.73;;;3.27;;
21624;SDS011;10974;51.034;3.744;2023-03-23T20:09:03;5.17;;;2.47;;
21624;SDS011;10974;51.034;3.744;2023-03-23T20:11:30;7.37;;;2.97;;
21624;SDS011;10974;51.034;3.744;2023-03-23T20:13:56;15.40;;;3.83;;
21624;SDS011;10974;51.034;3.744;2023-03-23T20:16:23;11.57;;;4.07;;
21624;SDS011;10974;51.034;3.744;2023-03-23T20:18:49;10.50;;;3.33;;
21624;SDS011;10974;51.034;3.744;2023-03-23T20:21:16;9.20;;;3.47;;
21624;SDS011;10974;51.034;3.744;2023-03-23T20:23:44;4.63;;;2.63;;
21624;SDS011;10974;51.034;3.744;2023-03-23T20:26:12;20.13;;;3.10;;
21624;SDS011;10974;51.034;3.744;2023-03-23T20:28:38;5.00;;;2.80;;
21624;SDS011;10974;51.034;3.744;2023-03-23T20:31:10;6.00;;;2.70;;
21624;SDS011;10974;51.034;3.744;2023-03-23T20:33:37;7.33;;;3.10;;
21624;SDS011;10974;51.034;3.744;2023-03-23T20:36:04;9.40;;;3.13;;
21624;SDS011;10974;51.034;3.744;2023-03-23T20:38:30;5.67;;;3.17;;
21624;SDS011;10974;51.034;3.744;2023-03-23T20:41:00;5.60;;;2.90;;
21624;SDS011;10974;51.034;3.744;2023-03-23T20:43:28;9.33;;;3.23;;